createdAt,value
2019-04-05T04:45:13.041Z,99516.89
2019-04-05T04:50:54.321Z,99520.43
2019-04-05T05:54:33.571Z,99550.61
2019-04-05T06:13:53.749Z,99551.97
2019-04-05T06:26:05.101Z,99557.98
2019-04-05T06:32:05.529Z,99562.09
2019-04-05T06:39:00.220Z,99550.62
2019-04-05T06:40:43.242Z,99557.94
2019-04-05T06:43:36.907Z,99557.00
2019-04-05T06:49:17.951Z,99551.76
2019-04-05T06:54:59.967Z,99533.95
2019-04-05T07:00:56.934Z,99532.51
2019-04-05T10:01:26.172Z,99534.02
2019-04-05T10:15:52.225Z,99530.08
2019-04-05T10:19:15.378Z,99531.72
2019-04-05T10:32:22.634Z,99532.41
2019-04-05T11:06:02.199Z,99503.42
2019-04-05T11:42:58.636Z,99492.96
2019-04-05T12:01:29.356Z,99476.25
2019-04-05T12:17:45.090Z,99462.83
2019-04-05T12:20:21.959Z,99463.83
2019-04-05T12:23:15.848Z,99462.36
2019-04-05T12:26:03.793Z,99466.97
2019-04-05T12:32:09.418Z,99456.54
2019-04-05T12:37:28.964Z,99467.55
2019-04-05T12:43:21.694Z,99459.33
2019-04-05T12:46:16.105Z,99458.54
2019-04-05T12:49:03.136Z,99457.11
2019-04-05T12:54:35.366Z,99457.86
2019-04-05T12:57:03.885Z,99451.73
2019-04-05T12:59:32.423Z,99444.61
2019-04-05T13:02:00.958Z,99450.91
2019-04-05T13:04:35.120Z,99451.23
2019-04-05T13:07:04.937Z,99450.91
2019-04-05T13:09:33.391Z,99451.27
2019-04-05T13:12:01.802Z,99460.55
2019-04-05T13:14:30.257Z,99456.29
2019-04-05T13:17:01.579Z,99447.29
2019-04-05T13:19:33.717Z,99443.95
2019-04-05T13:22:06.147Z,99433.00
2019-04-05T13:24:40.595Z,99431.80
2019-04-05T13:27:11.371Z,99440.69
2019-04-05T13:29:39.216Z,99440.14
2019-04-05T13:32:07.734Z,99439.40
2019-04-05T13:34:36.225Z,99434.38
2019-04-05T13:37:04.714Z,99430.89
2019-04-05T13:42:25.450Z,99428.02
2019-04-05T13:45:10.731Z,99426.81
2019-04-05T13:47:46.495Z,99428.77
2019-04-05T13:50:15.553Z,99432.41
2019-04-05T13:52:44.019Z,99427.23
2019-04-05T13:55:12.579Z,99413.82
2019-04-05T13:57:41.298Z,99423.45
2019-04-05T14:00:10.686Z,99421.27
2019-04-05T14:02:39.104Z,99417.06
2019-04-05T14:05:08.019Z,99410.56
2019-04-05T14:07:36.472Z,99414.51
2019-04-05T14:10:10.628Z,99414.84
2019-04-05T14:12:39.617Z,99411.94
2019-04-05T14:15:10.679Z,99406.61
2019-04-05T14:17:38.576Z,99405.93
2019-04-05T14:20:09.044Z,99409.55
2019-04-05T14:22:37.906Z,99410.23
2019-04-05T14:25:08.606Z,99408.59
2019-04-05T14:27:36.995Z,99410.89
2019-04-05T14:30:06.946Z,99408.52
2019-04-05T14:32:35.489Z,99406.37
2019-04-05T14:35:07.713Z,99413.69
2019-04-05T14:37:35.504Z,99414.18
2019-04-05T14:40:06.189Z,99412.83
2019-04-05T14:42:34.648Z,99412.16
2019-04-05T14:45:03.357Z,99400.34
2019-04-05T14:47:31.765Z,99408.36
2019-04-05T14:50:00.913Z,99403.47
2019-04-05T14:52:31.240Z,99404.47
2019-04-05T14:54:59.981Z,99407.53
2019-04-05T14:57:29.047Z,99410.60
2019-04-05T14:59:57.485Z,99404.30
2019-04-05T15:02:25.905Z,99409.92
2019-04-05T15:04:54.337Z,99402.12
2019-04-05T15:07:22.766Z,99404.22
2019-04-05T15:09:54.791Z,99412.16
2019-04-05T15:12:21.345Z,99410.01
2019-04-05T15:14:49.816Z,99408.19
2019-04-05T15:17:18.219Z,99412.60
2019-04-05T15:19:46.629Z,99401.95
2019-04-05T15:22:15.185Z,99404.64
2019-04-05T15:24:44.629Z,99408.38
2019-04-05T15:27:13.737Z,99400.67
2019-04-05T15:29:42.178Z,99398.15
2019-04-05T15:32:10.610Z,99400.66
2019-04-05T15:34:39.037Z,99398.64
2019-04-05T15:37:07.465Z,99401.09
2019-04-05T15:39:36.033Z,99399.02
2019-04-05T15:42:04.689Z,99399.69
2019-04-05T15:44:33.166Z,99403.33
2019-04-05T15:47:01.607Z,99401.34
2019-04-05T15:49:30.019Z,99403.19
2019-04-05T15:51:58.964Z,99406.03
2019-04-05T15:54:29.008Z,99401.70
2019-04-05T15:56:57.799Z,99405.01
2019-04-05T15:59:26.925Z,99400.84
2019-04-05T16:01:55.358Z,99406.78
2019-04-05T16:04:24.530Z,99410.14
2019-04-05T16:06:52.929Z,99410.98
2019-04-05T16:09:22.519Z,99407.13
2019-04-05T16:11:50.918Z,99408.19
2019-04-05T16:14:19.378Z,99410.34
2019-04-05T16:16:47.865Z,99410.50
2019-04-05T16:19:16.302Z,99411.14
2019-04-05T16:21:44.706Z,99414.41
2019-04-05T16:24:13.171Z,99420.53
2019-04-05T16:26:41.667Z,99424.69
2019-04-05T16:29:10.293Z,99422.40
2019-04-05T16:31:38.708Z,99429.52
2019-04-05T16:34:07.200Z,99429.33
2019-04-05T16:36:35.695Z,99431.47
2019-04-05T16:39:07.354Z,99439.25
2019-04-05T16:41:35.778Z,99431.81
2019-04-05T16:44:04.181Z,99438.75
2019-04-05T16:46:32.627Z,99439.42
2019-04-05T16:49:01.043Z,99436.13
2019-04-05T16:51:29.470Z,99443.89
2019-04-05T16:54:01.644Z,99453.50
2019-04-05T16:56:30.530Z,99454.95
2019-04-05T16:58:59.410Z,99449.02
2019-04-05T17:01:28.003Z,99451.00
2019-04-05T17:03:56.458Z,99453.64
2019-04-05T17:06:24.986Z,99449.03
2019-04-05T17:08:53.454Z,99449.01
2019-04-05T17:11:21.956Z,99455.30
2019-04-05T17:13:50.511Z,99453.00
2019-04-05T17:16:18.969Z,99461.91
2019-04-05T17:18:47.478Z,99461.27
2019-04-05T17:21:15.894Z,99461.27
2019-04-05T17:23:44.311Z,99455.98
2019-04-05T17:26:12.737Z,99460.77
2019-04-05T17:28:41.142Z,99455.14
2019-04-05T17:31:09.551Z,99459.27
2019-04-05T17:33:38.055Z,99461.75
2019-04-05T17:36:06.457Z,99459.94
2019-04-05T17:38:34.894Z,99466.22
2019-04-05T17:41:03.314Z,99458.11
2019-04-05T17:43:31.753Z,99458.61
2019-04-05T17:46:00.190Z,99462.59
2019-04-05T17:48:29.538Z,99459.75
2019-04-05T17:50:59.134Z,99458.28
2019-04-05T17:53:30.789Z,99456.28
2019-04-05T17:56:00.069Z,99456.95
2019-04-05T17:58:29.808Z,99453.31
2019-04-05T18:00:58.632Z,99452.66
2019-04-05T18:03:28.624Z,99460.61
2019-04-05T18:06:05.280Z,99459.94
2019-04-05T18:08:36.254Z,99460.94
2019-04-05T18:11:05.338Z,99463.52
2019-04-05T18:13:39.494Z,99464.73
2019-04-05T18:16:09.441Z,99464.22
2019-04-05T18:18:42.292Z,99473.20
2019-04-05T18:21:14.353Z,99473.94
2019-04-05T18:23:46.735Z,99475.34
2019-04-05T18:26:15.362Z,99477.29
2019-04-05T18:28:43.985Z,99476.54
2019-04-05T18:31:12.545Z,99478.05
2019-04-05T18:33:41.028Z,99478.67
2019-04-05T18:36:09.678Z,99476.13
2019-04-05T18:38:38.177Z,99482.08
2019-04-05T18:41:06.647Z,99479.73
2019-04-05T18:43:35.123Z,99480.70
2019-04-05T18:46:03.548Z,99488.17
2019-04-05T18:48:32.042Z,99488.45
2019-04-05T18:51:00.459Z,99488.31
2019-04-05T18:53:37.478Z,99490.03
2019-04-05T18:55:59.083Z,99488.34
2019-04-05T18:58:31.476Z,99490.65
2019-04-05T19:01:00.016Z,99494.37
2019-04-05T19:03:28.505Z,99489.05
2019-04-05T19:05:56.946Z,99482.21
2019-04-05T19:08:39.606Z,99490.84
2019-04-05T19:11:06.416Z,99485.85
2019-04-05T19:13:34.891Z,99489.97
2019-04-05T19:16:03.570Z,99494.91
2019-04-05T19:18:32.687Z,99493.23
2019-04-05T19:21:01.266Z,99485.70
2019-04-05T19:23:29.803Z,99484.89
2019-04-05T19:25:58.304Z,99484.64
2019-04-05T19:28:27.322Z,99484.03
2019-04-05T19:50:58.393Z,99476.44
2019-04-05T19:53:26.834Z,99478.39
2019-04-05T19:55:55.287Z,99478.39
2019-04-05T19:58:23.724Z,99474.33
2019-04-05T20:00:52.137Z,99470.83
2019-04-05T20:03:20.577Z,99474.13
2019-04-05T20:05:49.051Z,99472.31
2019-04-05T20:08:17.580Z,99469.10
2019-04-05T20:10:46.062Z,99465.85
2019-04-05T20:13:14.588Z,99464.89
2019-04-05T20:15:42.999Z,99466.02
2019-04-05T20:18:11.534Z,99467.20
2019-04-05T20:20:40.038Z,99466.20
2019-04-05T20:23:08.559Z,99463.91
2019-04-05T20:25:37.161Z,99470.34
2019-04-05T20:28:05.590Z,99465.87
2019-04-05T20:30:34.318Z,99470.33
2019-04-05T20:33:02.789Z,99471.01
2019-04-05T20:35:31.249Z,99475.79
2019-04-05T20:37:59.658Z,99477.27
2019-04-05T20:40:42.099Z,99479.09
2019-04-05T20:43:15.623Z,99484.70
2019-04-05T20:45:43.509Z,99484.55
2019-04-05T20:48:11.918Z,99477.14
2019-04-05T20:50:40.450Z,99485.20
2019-04-05T20:53:08.937Z,99472.47
2019-04-05T20:55:37.531Z,99473.11
2019-04-05T20:58:05.985Z,99482.86
2019-04-05T21:00:34.467Z,99484.89
2019-04-05T21:03:03.099Z,99479.58
2019-04-05T21:05:31.599Z,99476.74
2019-04-05T21:08:00.155Z,99482.47
2019-04-05T21:10:30.294Z,99487.98
2019-04-05T21:12:58.868Z,99489.55
2019-04-05T21:15:28.687Z,99489.54
2019-04-05T21:17:57.623Z,99488.17
2019-04-05T21:20:26.035Z,99492.67
2019-04-05T21:22:54.648Z,99494.98
2019-04-05T21:25:23.158Z,99493.23
2019-04-05T21:27:51.633Z,99499.08
2019-04-05T21:30:20.240Z,99494.21
2019-04-05T21:32:48.652Z,99494.95
2019-04-05T21:35:17.121Z,99489.67
2019-04-05T21:37:45.589Z,99492.95
2019-04-05T21:40:14.250Z,99493.92
2019-04-05T21:42:44.705Z,99496.92
2019-04-05T21:45:13.258Z,99490.67
2019-04-05T21:47:41.697Z,99494.30
2019-04-05T21:50:11.226Z,99483.59
2019-04-05T21:52:39.726Z,99495.27
2019-04-05T21:55:08.454Z,99495.16
2019-04-05T21:57:36.845Z,99488.70
2019-04-05T22:00:26.557Z,99491.52
2019-04-05T22:02:55.037Z,99491.47
2019-04-05T22:05:23.500Z,99493.59
2019-04-05T22:07:51.887Z,99495.82
2019-04-05T22:10:20.396Z,99495.97
2019-04-05T22:12:48.882Z,99498.02
2019-04-05T22:15:17.290Z,99493.64
2019-04-05T22:17:45.825Z,99495.97
2019-04-05T22:20:14.828Z,99488.63
2019-04-05T22:22:43.231Z,99490.72
2019-04-05T22:25:11.729Z,99496.30
2019-04-05T22:27:40.146Z,99488.02
2019-04-05T22:30:08.941Z,99490.67
2019-04-05T22:32:37.340Z,99490.33
2019-04-05T22:35:06.172Z,99487.15
2019-04-05T22:37:34.599Z,99488.03
2019-04-05T22:40:03.281Z,99488.34
2019-04-05T22:42:31.826Z,99487.84
2019-04-05T22:45:00.271Z,99484.36
2019-04-05T22:47:28.672Z,99491.47
2019-04-05T22:49:57.180Z,99487.72
2019-04-05T22:52:25.584Z,99494.16
2019-04-05T22:54:54.098Z,99490.84
2019-04-05T22:57:22.584Z,99491.88
2019-04-05T22:59:51.080Z,99491.67
2019-04-05T23:02:19.689Z,99491.91
2019-04-05T23:04:48.210Z,99486.77
2019-04-05T23:07:16.721Z,99494.41
2019-04-05T23:09:45.122Z,99487.30
2019-04-05T23:12:13.546Z,99485.53
2019-04-05T23:14:41.949Z,99489.45
2019-04-05T23:17:10.446Z,99489.66
2019-04-05T23:19:38.884Z,99482.88
2019-04-05T23:22:07.296Z,99487.89
2019-04-05T23:24:35.752Z,99483.45
2019-04-05T23:27:04.158Z,99488.61
2019-04-05T23:29:32.564Z,99498.43
2019-04-05T23:32:01.003Z,99498.92
2019-04-05T23:34:29.406Z,99492.99
2019-04-05T23:36:57.868Z,99494.95
2019-04-05T23:39:26.356Z,99492.52
2019-04-05T23:41:54.752Z,99494.06
2019-04-05T23:44:23.273Z,99499.44
2019-04-05T23:46:52.731Z,99500.42
2019-04-05T23:49:21.304Z,99495.11
2019-04-05T23:51:49.748Z,99498.06
2019-04-05T23:54:18.206Z,99492.34
2019-04-05T23:56:46.737Z,99493.76
2019-04-05T23:59:15.166Z,99489.45
